Ana Sayfa
METAR-TAF:

METAR-TAF

Havaalanları :

Wink, Teksas, Amerika Birleşik Devletleri

Enlem: 31-46-47N, Boylam: 103-12-05W, yükseklik: 860 m

Güncel hava durumu gözlemi

Rapor saat 07:53 UTC de 50 dakika önce yapıldı.
Rüzgar kuzey/kuzeybatıdan 5 kt
Sıcaklık -1°C
Nem 64%
Basınç 1020 hPa
Görüş mesafesi: 16.1 km
Açık gökyüzü

METAR: KINK 290753Z AUTO 34005KT 10SM CLR M01/M07 A3012 RMK AO2 SLP190 T10061067

Saat: 02:43 (08:43 UTC)

Tahmin

Rapor saat 05:32 UTC de 3 saat ve 11 dakika önce yapıldı.
Ayın 29'si saat 06 UTC'den ayın 30'si saat 06 UTC'ye kadar geçerli Tahmin
Rüzgar kuzey/kuzeydoğudan 4 kt
Görüş mesafesi: 10 km
Açık gökyüzü
Ayın 29'si saat 1700 UTC'den
Rüzgar doğudan 14 kt
Görüş mesafesi: 10 km
Açık gökyüzü

TAF: KINK 290532Z 2906/3006 02004KT P6SM SKC FM291700 10014KT P6SM SKC

4.000'den fazla havaalanı için hava durumu gözlemleri ve tahminleri (METAR ve TAF raporları).

Kullanılabilir istasyonlar harita üzerinde sarı ve kırmızı noktalarla gösterilir.

İstasyonun adını görmek için fareyi noktanın üzerinde gezdirin.

Sonrasında hava gözlem ve tahminlerini görmek için tıklayın.

Haritayı değiştirmek için: yaklaştırmak için siyah artı işaretli yeşil düğmeye ve uzaklaştırmak için de eksi işaretli düğmeye hızla tıklayın; bitişik haritalar için yeşil okları kullanın.


METAR-TAF: